Humidity-temperature Sensor

Selected Measurement Type: Air Temperature

 
Air Temperature [°C]     6 entries per hour
Showing data from 7/26/2020 (00:00:00 Z) to 7/25/2020 (00:01:00 Z)
Previous Next [ Day | 3-Days | 7-Days ]
First Last
Prev [ Day | 3-Days | 7-Days ] Next
First Last

Start Time:     :
End Time:     :     
Time (in GMT) :00 :50 :40 :30 :20 :10
Previous Next [ Day | 3-Days | 7-Days ]
First Last
Prev [ Day | 3-Days | 7-Days ] Next
First Last


123 => good data
MM => data is determined as missing
-- => data not received/configured
Back to Top Back to Top
7/26/2020 00:00 to 23:10 24.56 24.50 24.68 24.67 24.76 24.73
7/25/2020 23:00 to 22:10 24.63 24.66 24.58 24.71 24.58 24.75
7/25/2020 22:00 to 21:10 24.72 24.61 24.59 24.63 24.53 24.63
7/25/2020 21:00 to 20:10 24.66 24.58 24.62 24.61 24.68 24.65
7/25/2020 20:00 to 19:10 24.65 24.62 24.66 24.57 24.57 24.59
7/25/2020 19:00 to 18:10 24.54 24.51 24.55 24.55 24.46 24.45
7/25/2020 18:00 to 17:10 24.51 24.62 24.55 24.53 24.69 24.58
7/25/2020 17:00 to 16:10 24.61 24.53 24.65 24.51 24.60 24.59
7/25/2020 16:00 to 15:10 24.63 24.66 24.60 24.77 24.64 24.65
7/25/2020 15:00 to 14:10 24.58 24.48 24.70 24.46 24.41 24.50
7/25/2020 14:00 to 13:10 24.29 24.27 24.04 24.14 24.18 24.14
7/25/2020 13:00 to 12:10 24.21 24.16 24.26 24.11 24.18 24.17
7/25/2020 12:00 to 11:10 24.31 24.16 24.28 24.06 24.20 24.23
7/25/2020 11:00 to 10:10 24.20 24.20 24.21 24.11 24.26 24.24
7/25/2020 10:00 to 9:10 24.28 24.23 24.32 24.26 24.21 24.19
7/25/2020 09:00 to 8:10 24.31 24.27 24.21 24.24 24.25 24.34
7/25/2020 08:00 to 7:10 24.26 24.21 24.20 24.23 24.29 24.18
7/25/2020 07:00 to 6:10 24.10 24.25 24.26 24.31 24.26 24.36
7/25/2020 06:00 to 5:10 24.21 24.21 24.15 24.23 24.15 24.32
7/25/2020 05:00 to 4:10 24.21 24.30 24.22 24.13 24.30 24.17
7/25/2020 04:00 to 3:10 24.26 24.27 24.17 24.30 24.27 24.20
7/25/2020 03:00 to 2:10 24.30 24.23 24.23 24.14 24.26 24.11
7/25/2020 02:00 to 1:10 24.19 24.46 24.37 24.40 24.27 24.17
7/25/2020 01:00 to 0:10 24.34 24.44 24.57 24.56 24.52 24.51